sensor_id;sensor_type;location;lat;lon;timestamp;P1;durP1;ratioP1;P2;durP2;ratioP2
51814;SDS011;37874;53.158;6.766;2023-06-10T00:00:12;3.25;;;2.42;;
51814;SDS011;37874;53.158;6.766;2023-06-10T00:02:40;4.35;;;2.50;;
51814;SDS011;37874;53.158;6.766;2023-06-10T00:05:06;4.22;;;2.20;;
51814;SDS011;37874;53.158;6.766;2023-06-10T00:07:33;3.03;;;2.28;;
51814;SDS011;37874;53.158;6.766;2023-06-10T00:10:03;3.58;;;2.38;;
51814;SDS011;37874;53.158;6.766;2023-06-10T00:12:31;3.35;;;2.15;;
51814;SDS011;37874;53.158;6.766;2023-06-10T00:15:02;3.17;;;2.00;;
51814;SDS011;37874;53.158;6.766;2023-06-10T00:17:29;3.33;;;2.25;;
51814;SDS011;37874;53.158;6.766;2023-06-10T00:19:55;4.10;;;2.30;;
51814;SDS011;37874;53.158;6.766;2023-06-10T00:22:22;4.07;;;2.67;;
51814;SDS011;37874;53.158;6.766;2023-06-10T00:24:49;4.07;;;2.55;;
51814;SDS011;37874;53.158;6.766;2023-06-10T00:27:16;3.63;;;2.33;;
51814;SDS011;37874;53.158;6.766;2023-06-10T00:29:41;3.95;;;2.30;;
51814;SDS011;37874;53.158;6.766;2023-06-10T00:32:07;3.45;;;2.42;;
51814;SDS011;37874;53.158;6.766;2023-06-10T00:34:33;3.75;;;2.50;;
51814;SDS011;37874;53.158;6.766;2023-06-10T00:36:59;3.55;;;2.20;;
51814;SDS011;37874;53.158;6.766;2023-06-10T00:39:24;4.07;;;2.30;;
51814;SDS011;37874;53.158;6.766;2023-06-10T00:41:50;3.28;;;2.10;;
51814;SDS011;37874;53.158;6.766;2023-06-10T00:44:16;3.03;;;2.08;;
51814;SDS011;37874;53.158;6.766;2023-06-10T00:46:42;3.42;;;2.40;;
51814;SDS011;37874;53.158;6.766;2023-06-10T00:49:08;3.28;;;2.00;;
51814;SDS011;37874;53.158;6.766;2023-06-10T00:51:34;3.15;;;2.17;;
51814;SDS011;37874;53.158;6.766;2023-06-10T00:54:01;3.70;;;2.10;;
51814;SDS011;37874;53.158;6.766;2023-06-10T00:56:28;3.30;;;2.10;;
51814;SDS011;37874;53.158;6.766;2023-06-10T00:58:53;4.32;;;2.13;;
51814;SDS011;37874;53.158;6.766;2023-06-10T01:01:19;3.78;;;2.47;;
51814;SDS011;37874;53.158;6.766;2023-06-10T01:03:45;4.40;;;2.30;;
51814;SDS011;37874;53.158;6.766;2023-06-10T01:08:55;3.03;;;1.85;;
51814;SDS011;37874;53.158;6.766;2023-06-10T01:11:29;3.10;;;2.10;;
51814;SDS011;37874;53.158;6.766;2023-06-10T01:14:01;3.03;;;2.22;;
51814;SDS011;37874;53.158;6.766;2023-06-10T01:16:30;3.78;;;2.00;;
51814;SDS011;37874;53.158;6.766;2023-06-10T01:18:56;3.50;;;2.13;;
51814;SDS011;37874;53.158;6.766;2023-06-10T01:21:22;3.75;;;2.13;;
51814;SDS011;37874;53.158;6.766;2023-06-10T01:23:49;3.70;;;2.40;;
51814;SDS011;37874;53.158;6.766;2023-06-10T01:26:16;3.17;;;1.92;;
51814;SDS011;37874;53.158;6.766;2023-06-10T01:28:47;3.47;;;2.10;;
51814;SDS011;37874;53.158;6.766;2023-06-10T01:34:09;2.67;;;2.08;;
51814;SDS011;37874;53.158;6.766;2023-06-10T01:36:37;3.03;;;2.30;;
51814;SDS011;37874;53.158;6.766;2023-06-10T01:39:05;3.00;;;2.10;;
51814;SDS011;37874;53.158;6.766;2023-06-10T01:41:32;2.78;;;1.88;;
51814;SDS011;37874;53.158;6.766;2023-06-10T01:44:00;3.10;;;1.90;;
51814;SDS011;37874;53.158;6.766;2023-06-10T01:46:25;2.92;;;2.00;;
51814;SDS011;37874;53.158;6.766;2023-06-10T01:48:51;3.08;;;2.22;;
51814;SDS011;37874;53.158;6.766;2023-06-10T01:51:17;2.90;;;1.92;;
51814;SDS011;37874;53.158;6.766;2023-06-10T01:53:42;3.47;;;2.10;;
51814;SDS011;37874;53.158;6.766;2023-06-10T01:56:08;2.88;;;2.00;;
51814;SDS011;37874;53.158;6.766;2023-06-10T01:58:34;3.50;;;2.00;;
51814;SDS011;37874;53.158;6.766;2023-06-10T02:01:00;3.53;;;2.08;;
51814;SDS011;37874;53.158;6.766;2023-06-10T02:03:26;2.92;;;1.90;;
51814;SDS011;37874;53.158;6.766;2023-06-10T02:05:52;2.97;;;1.88;;
51814;SDS011;37874;53.158;6.766;2023-06-10T02:08:17;2.28;;;1.67;;
51814;SDS011;37874;53.158;6.766;2023-06-10T02:10:43;2.90;;;2.10;;
51814;SDS011;37874;53.158;6.766;2023-06-10T02:13:09;4.13;;;2.10;;
51814;SDS011;37874;53.158;6.766;2023-06-10T02:15:34;3.00;;;2.20;;
51814;SDS011;37874;53.158;6.766;2023-06-10T02:18:00;3.47;;;2.28;;
51814;SDS011;37874;53.158;6.766;2023-06-10T02:20:26;3.80;;;2.17;;
51814;SDS011;37874;53.158;6.766;2023-06-10T02:22:51;3.20;;;2.05;;
51814;SDS011;37874;53.158;6.766;2023-06-10T02:25:17;3.22;;;2.00;;
51814;SDS011;37874;53.158;6.766;2023-06-10T02:27:43;3.78;;;2.35;;
51814;SDS011;37874;53.158;6.766;2023-06-10T02:30:08;3.35;;;2.30;;
51814;SDS011;37874;53.158;6.766;2023-06-10T02:32:35;2.85;;;1.95;;
51814;SDS011;37874;53.158;6.766;2023-06-10T02:35:01;3.25;;;2.13;;
51814;SDS011;37874;53.158;6.766;2023-06-10T02:37:26;3.53;;;2.40;;
51814;SDS011;37874;53.158;6.766;2023-06-10T02:39:52;3.58;;;2.63;;
51814;SDS011;37874;53.158;6.766;2023-06-10T02:42:18;3.30;;;2.30;;
51814;SDS011;37874;53.158;6.766;2023-06-10T02:44:44;3.17;;;2.55;;
51814;SDS011;37874;53.158;6.766;2023-06-10T02:47:09;4.45;;;2.60;;
51814;SDS011;37874;53.158;6.766;2023-06-10T02:49:35;3.95;;;2.65;;
51814;SDS011;37874;53.158;6.766;2023-06-10T02:52:00;4.65;;;2.67;;
51814;SDS011;37874;53.158;6.766;2023-06-10T02:54:27;3.60;;;2.80;;
51814;SDS011;37874;53.158;6.766;2023-06-10T02:56:52;4.32;;;2.80;;
51814;SDS011;37874;53.158;6.766;2023-06-10T02:59:20;3.38;;;2.50;;
51814;SDS011;37874;53.158;6.766;2023-06-10T03:01:46;3.88;;;2.38;;
51814;SDS011;37874;53.158;6.766;2023-06-10T03:04:12;3.53;;;2.50;;
51814;SDS011;37874;53.158;6.766;2023-06-10T03:06:40;3.63;;;2.60;;
51814;SDS011;37874;53.158;6.766;2023-06-10T03:09:06;3.45;;;2.53;;
51814;SDS011;37874;53.158;6.766;2023-06-10T03:11:34;3.38;;;2.40;;
51814;SDS011;37874;53.158;6.766;2023-06-10T03:14:00;2.92;;;2.28;;
51814;SDS011;37874;53.158;6.766;2023-06-10T03:16:26;3.70;;;2.75;;
51814;SDS011;37874;53.158;6.766;2023-06-10T03:18:52;4.40;;;2.72;;
51814;SDS011;37874;53.158;6.766;2023-06-10T03:21:18;3.17;;;2.30;;
51814;SDS011;37874;53.158;6.766;2023-06-10T03:23:44;3.33;;;2.47;;
51814;SDS011;37874;53.158;6.766;2023-06-10T03:26:10;3.95;;;2.78;;
51814;SDS011;37874;53.158;6.766;2023-06-10T03:28:37;2.80;;;2.05;;
51814;SDS011;37874;53.158;6.766;2023-06-10T03:31:03;3.90;;;2.47;;
51814;SDS011;37874;53.158;6.766;2023-06-10T03:33:28;3.80;;;2.70;;
51814;SDS011;37874;53.158;6.766;2023-06-10T03:35:55;3.33;;;2.42;;
51814;SDS011;37874;53.158;6.766;2023-06-10T03:38:23;3.47;;;2.55;;
51814;SDS011;37874;53.158;6.766;2023-06-10T03:40:49;3.55;;;2.50;;
51814;SDS011;37874;53.158;6.766;2023-06-10T03:43:14;4.50;;;2.53;;
51814;SDS011;37874;53.158;6.766;2023-06-10T03:45:40;3.20;;;2.10;;
51814;SDS011;37874;53.158;6.766;2023-06-10T03:48:06;3.35;;;2.30;;
51814;SDS011;37874;53.158;6.766;2023-06-10T03:50:33;3.53;;;2.60;;
51814;SDS011;37874;53.158;6.766;2023-06-10T03:52:59;4.13;;;2.22;;
51814;SDS011;37874;53.158;6.766;2023-06-10T03:55:25;2.85;;;2.05;;
51814;SDS011;37874;53.158;6.766;2023-06-10T03:57:51;3.72;;;2.00;;
51814;SDS011;37874;53.158;6.766;2023-06-10T04:00:16;3.42;;;2.45;;
51814;SDS011;37874;53.158;6.766;2023-06-10T04:02:43;3.17;;;2.22;;
51814;SDS011;37874;53.158;6.766;2023-06-10T04:05:12;3.15;;;2.20;;
51814;SDS011;37874;53.158;6.766;2023-06-10T04:07:39;3.80;;;2.30;;
51814;SDS011;37874;53.158;6.766;2023-06-10T04:10:09;2.80;;;2.00;;
51814;SDS011;37874;53.158;6.766;2023-06-10T04:12:36;4.00;;;2.40;;
51814;SDS011;37874;53.158;6.766;2023-06-10T04:15:03;3.45;;;2.13;;
51814;SDS011;37874;53.158;6.766;2023-06-10T04:17:29;3.65;;;2.20;;
51814;SDS011;37874;53.158;6.766;2023-06-10T04:19:55;3.10;;;1.83;;
51814;SDS011;37874;53.158;6.766;2023-06-10T04:22:21;3.42;;;2.00;;
51814;SDS011;37874;53.158;6.766;2023-06-10T04:24:47;2.58;;;2.00;;
51814;SDS011;37874;53.158;6.766;2023-06-10T04:27:13;3.08;;;2.00;;
51814;SDS011;37874;53.158;6.766;2023-06-10T04:29:39;2.92;;;1.95;;
51814;SDS011;37874;53.158;6.766;2023-06-10T04:32:05;2.83;;;1.90;;
51814;SDS011;37874;53.158;6.766;2023-06-10T04:34:32;3.25;;;2.00;;
51814;SDS011;37874;53.158;6.766;2023-06-10T04:36:58;3.10;;;1.95;;
51814;SDS011;37874;53.158;6.766;2023-06-10T04:39:24;3.67;;;2.05;;
51814;SDS011;37874;53.158;6.766;2023-06-10T04:41:50;3.45;;;1.83;;
51814;SDS011;37874;53.158;6.766;2023-06-10T04:44:15;3.20;;;2.00;;
51814;SDS011;37874;53.158;6.766;2023-06-10T04:46:41;2.85;;;1.98;;
51814;SDS011;37874;53.158;6.766;2023-06-10T04:49:06;3.17;;;1.70;;
51814;SDS011;37874;53.158;6.766;2023-06-10T04:51:32;2.63;;;1.83;;
51814;SDS011;37874;53.158;6.766;2023-06-10T04:53:59;3.40;;;1.80;;
51814;SDS011;37874;53.158;6.766;2023-06-10T04:56:28;2.83;;;1.92;;
51814;SDS011;37874;53.158;6.766;2023-06-10T04:58:55;2.63;;;1.80;;
51814;SDS011;37874;53.158;6.766;2023-06-10T05:01:22;3.50;;;1.92;;
51814;SDS011;37874;53.158;6.766;2023-06-10T05:03:47;3.20;;;1.90;;
51814;SDS011;37874;53.158;6.766;2023-06-10T05:06:13;3.35;;;2.10;;
51814;SDS011;37874;53.158;6.766;2023-06-10T05:08:38;2.88;;;1.63;;
51814;SDS011;37874;53.158;6.766;2023-06-10T05:11:04;2.50;;;1.70;;
51814;SDS011;37874;53.158;6.766;2023-06-10T05:13:30;3.13;;;1.95;;
51814;SDS011;37874;53.158;6.766;2023-06-10T05:15:55;4.30;;;1.80;;
51814;SDS011;37874;53.158;6.766;2023-06-10T05:18:21;2.80;;;1.83;;
51814;SDS011;37874;53.158;6.766;2023-06-10T05:20:46;3.58;;;1.70;;
51814;SDS011;37874;53.158;6.766;2023-06-10T05:23:12;2.55;;;1.60;;
51814;SDS011;37874;53.158;6.766;2023-06-10T05:25:37;3.20;;;1.80;;
51814;SDS011;37874;53.158;6.766;2023-06-10T05:28:03;2.50;;;1.63;;
51814;SDS011;37874;53.158;6.766;2023-06-10T05:30:29;3.35;;;2.00;;
51814;SDS011;37874;53.158;6.766;2023-06-10T05:32:54;3.30;;;1.65;;
51814;SDS011;37874;53.158;6.766;2023-06-10T05:35:21;3.50;;;1.75;;
51814;SDS011;37874;53.158;6.766;2023-06-10T05:37:47;2.70;;;1.60;;
51814;SDS011;37874;53.158;6.766;2023-06-10T05:40:13;3.03;;;1.52;;
51814;SDS011;37874;53.158;6.766;2023-06-10T05:42:38;3.90;;;1.85;;
51814;SDS011;37874;53.158;6.766;2023-06-10T05:45:05;2.60;;;1.60;;
51814;SDS011;37874;53.158;6.766;2023-06-10T05:47:31;3.30;;;1.80;;
51814;SDS011;37874;53.158;6.766;2023-06-10T05:49:57;3.22;;;1.70;;
51814;SDS011;37874;53.158;6.766;2023-06-10T05:52:23;3.00;;;1.65;;
51814;SDS011;37874;53.158;6.766;2023-06-10T05:54:49;3.00;;;1.88;;
51814;SDS011;37874;53.158;6.766;2023-06-10T05:57:15;3.35;;;1.80;;
51814;SDS011;37874;53.158;6.766;2023-06-10T05:59:40;3.08;;;1.80;;
51814;SDS011;37874;53.158;6.766;2023-06-10T06:02:06;2.88;;;1.70;;
51814;SDS011;37874;53.158;6.766;2023-06-10T06:04:32;3.10;;;1.77;;
51814;SDS011;37874;53.158;6.766;2023-06-10T06:06:58;3.10;;;1.60;;
51814;SDS011;37874;53.158;6.766;2023-06-10T06:09:24;2.85;;;1.55;;
51814;SDS011;37874;53.158;6.766;2023-06-10T06:11:49;3.40;;;1.80;;
51814;SDS011;37874;53.158;6.766;2023-06-10T06:14:15;2.47;;;1.55;;
51814;SDS011;37874;53.158;6.766;2023-06-10T06:16:41;2.67;;;1.60;;
51814;SDS011;37874;53.158;6.766;2023-06-10T06:19:06;2.38;;;1.60;;
51814;SDS011;37874;53.158;6.766;2023-06-10T06:21:32;2.67;;;1.30;;
51814;SDS011;37874;53.158;6.766;2023-06-10T06:23:58;3.30;;;1.55;;
51814;SDS011;37874;53.158;6.766;2023-06-10T06:26:24;2.75;;;1.75;;
51814;SDS011;37874;53.158;6.766;2023-06-10T06:28:50;3.53;;;1.70;;
51814;SDS011;37874;53.158;6.766;2023-06-10T06:31:17;2.50;;;1.48;;
51814;SDS011;37874;53.158;6.766;2023-06-10T06:33:42;4.60;;;1.50;;
51814;SDS011;37874;53.158;6.766;2023-06-10T06:36:08;2.53;;;1.35;;
51814;SDS011;37874;53.158;6.766;2023-06-10T06:38:34;3.83;;;1.60;;
51814;SDS011;37874;53.158;6.766;2023-06-10T06:40:59;2.65;;;1.58;;
51814;SDS011;37874;53.158;6.766;2023-06-10T06:43:28;3.08;;;1.73;;
51814;SDS011;37874;53.158;6.766;2023-06-10T06:45:55;3.47;;;1.58;;
51814;SDS011;37874;53.158;6.766;2023-06-10T06:48:22;2.40;;;1.38;;
51814;SDS011;37874;53.158;6.766;2023-06-10T06:50:48;2.70;;;1.50;;
51814;SDS011;37874;53.158;6.766;2023-06-10T06:53:13;2.75;;;1.85;;
51814;SDS011;37874;53.158;6.766;2023-06-10T06:55:39;4.00;;;1.60;;
51814;SDS011;37874;53.158;6.766;2023-06-10T06:58:05;2.97;;;1.58;;
51814;SDS011;37874;53.158;6.766;2023-06-10T07:00:31;2.35;;;1.40;;
51814;SDS011;37874;53.158;6.766;2023-06-10T07:02:57;2.75;;;1.60;;
51814;SDS011;37874;53.158;6.766;2023-06-10T07:05:24;3.40;;;1.80;;
51814;SDS011;37874;53.158;6.766;2023-06-10T07:07:52;2.90;;;1.55;;
51814;SDS011;37874;53.158;6.766;2023-06-10T07:10:23;2.80;;;1.60;;
51814;SDS011;37874;53.158;6.766;2023-06-10T07:12:49;3.40;;;1.50;;
51814;SDS011;37874;53.158;6.766;2023-06-10T07:15:15;2.42;;;1.60;;
51814;SDS011;37874;53.158;6.766;2023-06-10T07:17:41;2.75;;;1.55;;
51814;SDS011;37874;53.158;6.766;2023-06-10T07:20:07;2.40;;;1.70;;
51814;SDS011;37874;53.158;6.766;2023-06-10T07:22:33;2.72;;;1.50;;
51814;SDS011;37874;53.158;6.766;2023-06-10T07:24:58;3.08;;;1.42;;
51814;SDS011;37874;53.158;6.766;2023-06-10T07:27:24;2.75;;;1.55;;
51814;SDS011;37874;53.158;6.766;2023-06-10T07:29:50;2.95;;;1.52;;
51814;SDS011;37874;53.158;6.766;2023-06-10T07:32:16;3.22;;;1.60;;
51814;SDS011;37874;53.158;6.766;2023-06-10T07:34:42;3.92;;;1.95;;
51814;SDS011;37874;53.158;6.766;2023-06-10T07:37:08;3.33;;;1.75;;
51814;SDS011;37874;53.158;6.766;2023-06-10T07:39:34;3.00;;;1.55;;
51814;SDS011;37874;53.158;6.766;2023-06-10T07:41:59;2.40;;;1.50;;
51814;SDS011;37874;53.158;6.766;2023-06-10T07:44:25;2.67;;;1.50;;
51814;SDS011;37874;53.158;6.766;2023-06-10T07:46:51;2.55;;;1.50;;
51814;SDS011;37874;53.158;6.766;2023-06-10T07:49:16;3.00;;;1.75;;
51814;SDS011;37874;53.158;6.766;2023-06-10T07:51:42;2.90;;;1.70;;
51814;SDS011;37874;53.158;6.766;2023-06-10T07:54:08;2.75;;;1.75;;
51814;SDS011;37874;53.158;6.766;2023-06-10T07:56:33;3.28;;;1.60;;
51814;SDS011;37874;53.158;6.766;2023-06-10T07:58:59;2.85;;;1.70;;
51814;SDS011;37874;53.158;6.766;2023-06-10T08:01:25;2.70;;;1.42;;
51814;SDS011;37874;53.158;6.766;2023-06-10T08:03:51;2.28;;;1.27;;
51814;SDS011;37874;53.158;6.766;2023-06-10T08:06:16;2.72;;;1.58;;
51814;SDS011;37874;53.158;6.766;2023-06-10T08:08:42;2.90;;;1.60;;
51814;SDS011;37874;53.158;6.766;2023-06-10T08:11:10;3.00;;;1.83;;
51814;SDS011;37874;53.158;6.766;2023-06-10T08:13:36;3.42;;;1.90;;
51814;SDS011;37874;53.158;6.766;2023-06-10T08:16:02;3.10;;;1.73;;
51814;SDS011;37874;53.158;6.766;2023-06-10T08:18:28;3.30;;;1.65;;
51814;SDS011;37874;53.158;6.766;2023-06-10T08:20:54;6.63;;;1.70;;
51814;SDS011;37874;53.158;6.766;2023-06-10T08:23:20;4.20;;;2.00;;
51814;SDS011;37874;53.158;6.766;2023-06-10T08:25:45;3.25;;;1.85;;
51814;SDS011;37874;53.158;6.766;2023-06-10T08:28:11;3.55;;;2.20;;
51814;SDS011;37874;53.158;6.766;2023-06-10T08:30:36;3.97;;;1.90;;
51814;SDS011;37874;53.158;6.766;2023-06-10T08:33:02;3.97;;;1.85;;
51814;SDS011;37874;53.158;6.766;2023-06-10T08:35:28;3.28;;;1.70;;
51814;SDS011;37874;53.158;6.766;2023-06-10T08:37:54;3.97;;;1.73;;
51814;SDS011;37874;53.158;6.766;2023-06-10T08:40:19;3.17;;;1.92;;
51814;SDS011;37874;53.158;6.766;2023-06-10T08:42:45;3.88;;;1.85;;
51814;SDS011;37874;53.158;6.766;2023-06-10T08:45:17;3.72;;;2.10;;
51814;SDS011;37874;53.158;6.766;2023-06-10T08:47:44;4.00;;;2.10;;
51814;SDS011;37874;53.158;6.766;2023-06-10T08:50:11;4.45;;;2.05;;
51814;SDS011;37874;53.158;6.766;2023-06-10T08:52:37;4.18;;;2.10;;
51814;SDS011;37874;53.158;6.766;2023-06-10T08:57:45;4.28;;;2.20;;
51814;SDS011;37874;53.158;6.766;2023-06-10T09:00:14;3.63;;;2.17;;
51814;SDS011;37874;53.158;6.766;2023-06-10T09:02:41;3.75;;;1.70;;
51814;SDS011;37874;53.158;6.766;2023-06-10T09:05:08;3.53;;;2.00;;
51814;SDS011;37874;53.158;6.766;2023-06-10T09:07:34;4.35;;;2.25;;
51814;SDS011;37874;53.158;6.766;2023-06-10T09:10:01;4.00;;;2.08;;
51814;SDS011;37874;53.158;6.766;2023-06-10T09:12:32;6.30;;;1.92;;
51814;SDS011;37874;53.158;6.766;2023-06-10T09:14:59;4.50;;;2.00;;
51814;SDS011;37874;53.158;6.766;2023-06-10T09:17:25;4.15;;;2.10;;
51814;SDS011;37874;53.158;6.766;2023-06-10T09:19:52;3.45;;;2.05;;
51814;SDS011;37874;53.158;6.766;2023-06-10T09:22:20;4.60;;;2.20;;
51814;SDS011;37874;53.158;6.766;2023-06-10T09:24:49;3.58;;;2.10;;
51814;SDS011;37874;53.158;6.766;2023-06-10T09:27:15;4.32;;;2.20;;
51814;SDS011;37874;53.158;6.766;2023-06-10T09:29:51;5.97;;;2.00;;
51814;SDS011;37874;53.158;6.766;2023-06-10T09:32:19;5.22;;;2.50;;
51814;SDS011;37874;53.158;6.766;2023-06-10T09:34:45;5.10;;;2.00;;
51814;SDS011;37874;53.158;6.766;2023-06-10T09:37:11;5.35;;;2.13;;
51814;SDS011;37874;53.158;6.766;2023-06-10T09:39:38;3.38;;;1.90;;
51814;SDS011;37874;53.158;6.766;2023-06-10T09:42:17;3.55;;;2.13;;
51814;SDS011;37874;53.158;6.766;2023-06-10T09:44:50;4.72;;;2.20;;
51814;SDS011;37874;53.158;6.766;2023-06-10T09:47:23;4.25;;;2.40;;
51814;SDS011;37874;53.158;6.766;2023-06-10T09:49:49;5.40;;;2.22;;
51814;SDS011;37874;53.158;6.766;2023-06-10T09:52:21;6.53;;;2.40;;
51814;SDS011;37874;53.158;6.766;2023-06-10T09:54:51;3.83;;;1.98;;
51814;SDS011;37874;53.158;6.766;2023-06-10T09:57:17;5.30;;;2.45;;
51814;SDS011;37874;53.158;6.766;2023-06-10T09:59:44;4.10;;;1.88;;
51814;SDS011;37874;53.158;6.766;2023-06-10T10:02:14;5.45;;;2.35;;
51814;SDS011;37874;53.158;6.766;2023-06-10T10:04:40;3.33;;;1.77;;
51814;SDS011;37874;53.158;6.766;2023-06-10T10:07:07;3.97;;;1.92;;
51814;SDS011;37874;53.158;6.766;2023-06-10T10:09:33;4.38;;;2.22;;
51814;SDS011;37874;53.158;6.766;2023-06-10T10:12:01;3.72;;;2.20;;
51814;SDS011;37874;53.158;6.766;2023-06-10T10:14:28;3.63;;;1.98;;
51814;SDS011;37874;53.158;6.766;2023-06-10T10:16:57;5.13;;;2.10;;
51814;SDS011;37874;53.158;6.766;2023-06-10T10:19:28;5.10;;;2.35;;
51814;SDS011;37874;53.158;6.766;2023-06-10T10:21:58;3.92;;;2.20;;
51814;SDS011;37874;53.158;6.766;2023-06-10T10:24:31;5.18;;;2.00;;
51814;SDS011;37874;53.158;6.766;2023-06-10T10:27:01;3.72;;;2.00;;
51814;SDS011;37874;53.158;6.766;2023-06-10T10:29:37;4.32;;;2.17;;
51814;SDS011;37874;53.158;6.766;2023-06-10T10:32:04;2.97;;;1.60;;
51814;SDS011;37874;53.158;6.766;2023-06-10T10:34:37;6.30;;;2.08;;
51814;SDS011;37874;53.158;6.766;2023-06-10T10:37:10;2.90;;;1.90;;
51814;SDS011;37874;53.158;6.766;2023-06-10T10:39:35;4.60;;;2.15;;
51814;SDS011;37874;53.158;6.766;2023-06-10T10:42:02;4.05;;;1.90;;
51814;SDS011;37874;53.158;6.766;2023-06-10T10:44:29;4.50;;;2.28;;
51814;SDS011;37874;53.158;6.766;2023-06-10T10:46:56;5.80;;;2.25;;
51814;SDS011;37874;53.158;6.766;2023-06-10T10:49:22;4.03;;;1.85;;
51814;SDS011;37874;53.158;6.766;2023-06-10T10:51:59;4.15;;;1.77;;
51814;SDS011;37874;53.158;6.766;2023-06-10T10:54:33;4.00;;;2.22;;
51814;SDS011;37874;53.158;6.766;2023-06-10T11:02:31;3.67;;;1.77;;
51814;SDS011;37874;53.158;6.766;2023-06-10T11:05:12;4.78;;;1.77;;
51814;SDS011;37874;53.158;6.766;2023-06-10T11:07:51;4.90;;;2.20;;
51814;SDS011;37874;53.158;6.766;2023-06-10T11:10:20;3.00;;;1.90;;
51814;SDS011;37874;53.158;6.766;2023-06-10T11:12:57;4.43;;;2.10;;
51814;SDS011;37874;53.158;6.766;2023-06-10T11:15:27;3.60;;;1.95;;
51814;SDS011;37874;53.158;6.766;2023-06-10T11:18:07;2.83;;;1.85;;
51814;SDS011;37874;53.158;6.766;2023-06-10T11:26:10;3.85;;;2.00;;
51814;SDS011;37874;53.158;6.766;2023-06-10T11:28:36;5.05;;;1.98;;
51814;SDS011;37874;53.158;6.766;2023-06-10T11:31:05;4.55;;;2.10;;
51814;SDS011;37874;53.158;6.766;2023-06-10T11:33:31;3.75;;;2.20;;
51814;SDS011;37874;53.158;6.766;2023-06-10T11:35:57;4.50;;;2.00;;
51814;SDS011;37874;53.158;6.766;2023-06-10T11:38:24;4.50;;;1.88;;
51814;SDS011;37874;53.158;6.766;2023-06-10T11:40:50;4.97;;;1.83;;
51814;SDS011;37874;53.158;6.766;2023-06-10T11:43:16;4.57;;;2.10;;
51814;SDS011;37874;53.158;6.766;2023-06-10T11:45:42;6.20;;;2.15;;
51814;SDS011;37874;53.158;6.766;2023-06-10T11:48:09;4.57;;;2.00;;
51814;SDS011;37874;53.158;6.766;2023-06-10T11:50:35;4.10;;;1.85;;
51814;SDS011;37874;53.158;6.766;2023-06-10T11:53:01;4.45;;;2.38;;
51814;SDS011;37874;53.158;6.766;2023-06-10T11:55:44;7.15;;;2.33;;
51814;SDS011;37874;53.158;6.766;2023-06-10T11:58:14;3.25;;;2.17;;
51814;SDS011;37874;53.158;6.766;2023-06-10T12:00:50;3.25;;;2.00;;
51814;SDS011;37874;53.158;6.766;2023-06-10T12:03:18;3.70;;;2.20;;
51814;SDS011;37874;53.158;6.766;2023-06-10T12:05:55;4.07;;;2.22;;
51814;SDS011;37874;53.158;6.766;2023-06-10T12:08:25;3.97;;;2.42;;
51814;SDS011;37874;53.158;6.766;2023-06-10T12:10:53;4.63;;;1.95;;
51814;SDS011;37874;53.158;6.766;2023-06-10T12:13:20;4.30;;;2.33;;
51814;SDS011;37874;53.158;6.766;2023-06-10T12:15:46;3.67;;;1.90;;
51814;SDS011;37874;53.158;6.766;2023-06-10T12:18:16;3.40;;;1.80;;
51814;SDS011;37874;53.158;6.766;2023-06-10T12:20:46;4.13;;;1.77;;
51814;SDS011;37874;53.158;6.766;2023-06-10T12:23:13;3.70;;;2.08;;
51814;SDS011;37874;53.158;6.766;2023-06-10T12:25:47;3.50;;;2.05;;
51814;SDS011;37874;53.158;6.766;2023-06-10T12:28:21;3.85;;;1.90;;
51814;SDS011;37874;53.158;6.766;2023-06-10T12:30:48;3.80;;;1.80;;
51814;SDS011;37874;53.158;6.766;2023-06-10T12:33:17;4.13;;;2.15;;
51814;SDS011;37874;53.158;6.766;2023-06-10T12:35:49;2.92;;;1.80;;
51814;SDS011;37874;53.158;6.766;2023-06-10T12:38:20;4.10;;;2.10;;
51814;SDS011;37874;53.158;6.766;2023-06-10T12:40:52;3.38;;;1.80;;
51814;SDS011;37874;53.158;6.766;2023-06-10T12:43:21;3.20;;;1.85;;
51814;SDS011;37874;53.158;6.766;2023-06-10T12:45:48;2.88;;;1.77;;
51814;SDS011;37874;53.158;6.766;2023-06-10T12:48:18;2.53;;;1.60;;
51814;SDS011;37874;53.158;6.766;2023-06-10T12:50:46;3.08;;;1.67;;
51814;SDS011;37874;53.158;6.766;2023-06-10T12:55:45;4.00;;;1.95;;
51814;SDS011;37874;53.158;6.766;2023-06-10T12:58:12;3.42;;;1.70;;
51814;SDS011;37874;53.158;6.766;2023-06-10T13:00:38;3.28;;;1.85;;
51814;SDS011;37874;53.158;6.766;2023-06-10T13:03:04;3.25;;;1.65;;
51814;SDS011;37874;53.158;6.766;2023-06-10T13:05:31;3.63;;;1.70;;
51814;SDS011;37874;53.158;6.766;2023-06-10T13:07:58;3.70;;;1.75;;
51814;SDS011;37874;53.158;6.766;2023-06-10T13:10:24;2.75;;;1.70;;
51814;SDS011;37874;53.158;6.766;2023-06-10T13:12:50;3.55;;;1.70;;
51814;SDS011;37874;53.158;6.766;2023-06-10T13:15:17;2.92;;;1.60;;
51814;SDS011;37874;53.158;6.766;2023-06-10T13:17:43;5.50;;;2.00;;
51814;SDS011;37874;53.158;6.766;2023-06-10T13:20:10;3.38;;;1.63;;
51814;SDS011;37874;53.158;6.766;2023-06-10T13:22:36;3.95;;;1.85;;
51814;SDS011;37874;53.158;6.766;2023-06-10T13:25:02;4.40;;;1.90;;
51814;SDS011;37874;53.158;6.766;2023-06-10T13:27:29;3.40;;;1.77;;
51814;SDS011;37874;53.158;6.766;2023-06-10T13:29:55;4.10;;;2.10;;
51814;SDS011;37874;53.158;6.766;2023-06-10T13:32:20;3.78;;;1.65;;
51814;SDS011;37874;53.158;6.766;2023-06-10T13:34:46;3.38;;;1.48;;
51814;SDS011;37874;53.158;6.766;2023-06-10T13:37:12;3.40;;;1.70;;
51814;SDS011;37874;53.158;6.766;2023-06-10T13:39:38;2.63;;;1.60;;
51814;SDS011;37874;53.158;6.766;2023-06-10T13:42:04;3.28;;;1.45;;
51814;SDS011;37874;53.158;6.766;2023-06-10T13:44:31;3.50;;;1.98;;
51814;SDS011;37874;53.158;6.766;2023-06-10T13:46:59;3.67;;;1.55;;
51814;SDS011;37874;53.158;6.766;2023-06-10T13:49:24;3.10;;;1.70;;
51814;SDS011;37874;53.158;6.766;2023-06-10T13:51:50;2.80;;;1.60;;
51814;SDS011;37874;53.158;6.766;2023-06-10T13:54:15;4.53;;;1.80;;
51814;SDS011;37874;53.158;6.766;2023-06-10T13:56:41;2.72;;;1.45;;
51814;SDS011;37874;53.158;6.766;2023-06-10T13:59:07;4.18;;;1.70;;
51814;SDS011;37874;53.158;6.766;2023-06-10T14:01:33;2.65;;;1.40;;
51814;SDS011;37874;53.158;6.766;2023-06-10T14:03:59;5.00;;;1.80;;
51814;SDS011;37874;53.158;6.766;2023-06-10T14:06:25;3.35;;;1.50;;
51814;SDS011;37874;53.158;6.766;2023-06-10T14:08:51;3.33;;;1.52;;
51814;SDS011;37874;53.158;6.766;2023-06-10T14:11:21;2.90;;;1.60;;
51814;SDS011;37874;53.158;6.766;2023-06-10T14:13:47;3.97;;;1.50;;
51814;SDS011;37874;53.158;6.766;2023-06-10T14:16:12;4.35;;;1.63;;
51814;SDS011;37874;53.158;6.766;2023-06-10T14:18:38;4.22;;;1.50;;
51814;SDS011;37874;53.158;6.766;2023-06-10T14:21:04;4.78;;;1.65;;
51814;SDS011;37874;53.158;6.766;2023-06-10T14:23:29;2.75;;;1.55;;
51814;SDS011;37874;53.158;6.766;2023-06-10T14:25:55;3.65;;;1.50;;
51814;SDS011;37874;53.158;6.766;2023-06-10T14:28:21;3.45;;;1.40;;
51814;SDS011;37874;53.158;6.766;2023-06-10T14:30:46;3.72;;;1.40;;
51814;SDS011;37874;53.158;6.766;2023-06-10T14:33:12;3.22;;;1.35;;
51814;SDS011;37874;53.158;6.766;2023-06-10T14:35:37;3.65;;;1.50;;
51814;SDS011;37874;53.158;6.766;2023-06-10T14:38:03;4.82;;;1.50;;
51814;SDS011;37874;53.158;6.766;2023-06-10T14:40:29;2.78;;;1.20;;
51814;SDS011;37874;53.158;6.766;2023-06-10T14:42:55;3.00;;;1.48;;
51814;SDS011;37874;53.158;6.766;2023-06-10T14:45:20;4.50;;;1.63;;
51814;SDS011;37874;53.158;6.766;2023-06-10T14:47:46;2.60;;;1.40;;
51814;SDS011;37874;53.158;6.766;2023-06-10T14:50:13;4.00;;;1.30;;
51814;SDS011;37874;53.158;6.766;2023-06-10T14:52:39;3.72;;;1.30;;
51814;SDS011;37874;53.158;6.766;2023-06-10T14:55:05;2.80;;;1.17;;
51814;SDS011;37874;53.158;6.766;2023-06-10T14:57:31;3.63;;;1.30;;
51814;SDS011;37874;53.158;6.766;2023-06-10T14:59:57;3.45;;;1.25;;
51814;SDS011;37874;53.158;6.766;2023-06-10T15:02:22;2.75;;;1.27;;
51814;SDS011;37874;53.158;6.766;2023-06-10T15:04:48;3.45;;;1.45;;
51814;SDS011;37874;53.158;6.766;2023-06-10T15:07:14;2.67;;;1.33;;